Time;durP1;ratioP1;P1;durP2;ratioP2;P2;SDS_P1;SDS_P2;PMS_P1;PMS_P2;Temp;Humidity;BMP_temperature;BMP_pressure;BME280_temperature;BME280_humidity;BME280_pressure;Samples;Min_cycle;Max_cycle;Signal;HPM_P1;HPM_P2
2023/08/18 00:01:03;;;;;;;0.70;0.70;;;;;;;20.69;83.80;95664.69;4337811;32;20181;-68
2023/08/18 00:03:29;;;;;;;0.87;0.87;;;;;;;20.69;83.64;95667.38;4349048;32;20188;-68
2023/08/18 00:05:56;;;;;;;1.17;1.17;;;;;;;20.63;83.11;95666.06;4347252;32;20201;-68
2023/08/18 00:08:21;;;;;;;0.67;0.67;;;;;;;20.66;83.26;95662.66;4347711;32;20207;-68
2023/08/18 00:10:47;;;;;;;0.83;0.83;;;;;;;20.67;82.72;95664.22;4350695;32;20181;-69
2023/08/18 00:13:13;;;;;;;1.13;1.03;;;;;;;20.72;82.24;95655.87;4352897;32;20181;-68
2023/08/18 00:15:38;;;;;;;1.00;1.00;;;;;;;20.72;82.00;95655.87;4356645;32;20199;-67
2023/08/18 00:18:06;;;;;;;0.80;0.60;;;;;;;20.59;82.25;95653.28;4336899;32;20213;-67
2023/08/18 00:20:31;;;;;;;1.20;1.20;;;;;;;20.53;82.58;95643.91;4338493;32;20224;-61
2023/08/18 00:22:56;;;;;;;0.80;0.80;;;;;;;20.43;83.09;95641.72;4349812;32;20185;-61
2023/08/18 00:25:22;;;;;;;0.57;0.57;;;;;;;20.32;83.45;95635.28;4353682;32;20227;-62
2023/08/18 00:27:47;;;;;;;0.50;0.50;;;;;;;20.33;83.41;95617.97;4333075;32;20189;-62
2023/08/18 00:30:13;;;;;;;0.93;0.90;;;;;;;20.38;83.37;95623.09;4353840;32;20177;-61
2023/08/18 00:32:38;;;;;;;0.60;0.60;;;;;;;20.40;83.42;95607.38;4341936;32;20189;-62
2023/08/18 00:35:04;;;;;;;0.30;0.27;;;;;;;20.31;83.77;95619.44;4356713;32;20228;-61
2023/08/18 00:37:29;;;;;;;0.57;0.50;;;;;;;20.31;83.89;95605.97;4359636;32;20228;-61
2023/08/18 00:39:55;;;;;;;0.40;0.40;;;;;;;20.28;83.89;95603.97;4356597;32;20177;-62
2023/08/18 00:42:20;;;;;;;0.87;0.87;;;;;;;20.31;83.78;95608.66;4340135;32;20206;-62
2023/08/18 00:44:45;;;;;;;0.63;0.63;;;;;;;20.38;83.52;95606.16;4336631;32;20252;-62
2023/08/18 00:47:11;;;;;;;0.80;0.80;;;;;;;20.32;83.81;95608.31;4334733;32;20209;-61
2023/08/18 00:49:37;;;;;;;0.67;0.67;;;;;;;20.25;83.82;95605.44;4349222;32;20187;-61
2023/08/18 00:52:03;;;;;;;0.93;0.93;;;;;;;20.21;84.08;95602.66;4346202;32;20185;-61
2023/08/18 00:54:30;;;;;;;1.40;0.57;;;;;;;20.27;84.04;95597.00;4355390;32;20178;-61
2023/08/18 00:56:55;;;;;;;0.80;0.80;;;;;;;20.20;84.33;95592.22;4337064;32;20181;-61
2023/08/18 00:59:21;;;;;;;1.00;1.00;;;;;;;20.19;84.54;95583.34;4332591;32;20195;-61
2023/08/18 01:01:48;;;;;;;0.50;0.50;;;;;;;20.26;84.17;95593.53;4350983;32;20185;-61
2023/08/18 01:04:13;;;;;;;1.10;1.00;;;;;;;20.00;85.28;95582.47;4342032;32;20221;-62
2023/08/18 01:06:40;;;;;;;0.47;0.47;;;;;;;20.11;85.05;95578.16;4345496;32;20186;-62
2023/08/18 01:09:06;;;;;;;0.33;0.33;;;;;;;20.04;85.10;95567.97;4346765;32;20182;-62
2023/08/18 01:11:52;;;;;;;1.57;0.60;;;;;;;20.08;85.06;95570.75;4328062;32;20241;-64
2023/08/18 01:14:30;;;;;;;0.40;0.40;;;;;;;20.05;85.14;95566.84;4349660;32;20244;-62
2023/08/18 01:17:10;;;;;;;1.27;1.20;;;;;;;19.99;85.54;95565.53;4341251;32;20330;-61
2023/08/18 01:19:36;;;;;;;0.80;0.80;;;;;;;19.98;85.67;95563.19;4359625;32;20275;-61
2023/08/18 01:22:02;;;;;;;1.10;1.07;;;;;;;20.05;85.34;95563.38;4344448;32;20236;-61
2023/08/18 01:24:28;;;;;;;0.73;0.73;;;;;;;20.06;85.17;95556.84;4353383;32;20200;-61
2023/08/18 01:26:53;;;;;;;0.73;0.73;;;;;;;20.01;85.42;95559.81;4355508;32;20186;-61
2023/08/18 01:29:20;;;;;;;0.87;0.87;;;;;;;19.98;85.39;95558.59;4356146;32;20181;-61
2023/08/18 01:31:50;;;;;;;0.93;0.90;;;;;;;19.98;85.57;95555.09;4337640;32;20215;-61
2023/08/18 01:34:18;;;;;;;0.80;0.80;;;;;;;19.98;85.52;95555.88;4355123;32;20324;-61
2023/08/18 01:36:45;;;;;;;0.80;0.80;;;;;;;20.01;85.29;95555.19;4366302;32;20260;-62
2023/08/18 01:39:12;;;;;;;0.70;0.70;;;;;;;20.03;85.07;95547.56;4332879;32;20198;-61
2023/08/18 01:41:40;;;;;;;1.73;1.63;;;;;;;19.98;85.30;95542.41;4346360;32;20185;-61
2023/08/18 01:44:06;;;;;;;0.73;0.73;;;;;;;19.94;85.52;95535.41;4360691;32;20246;-61
2023/08/18 01:46:32;;;;;;;0.93;0.93;;;;;;;19.88;85.77;95537.56;4362806;32;20239;-61
2023/08/18 01:48:57;;;;;;;0.77;0.77;;;;;;;19.83;85.88;95535.13;4346893;32;20279;-61
2023/08/18 01:51:22;;;;;;;0.30;0.30;;;;;;;19.90;85.78;95530.72;4356221;32;20184;-61
2023/08/18 01:53:47;;;;;;;1.27;0.97;;;;;;;19.84;85.75;95534.00;4373764;32;20204;-62
2023/08/18 01:56:14;;;;;;;0.73;0.37;;;;;;;19.85;85.92;95522.88;4337092;32;20200;-61
2023/08/18 01:58:41;;;;;;;0.83;0.83;;;;;;;19.94;85.39;95524.63;4342194;32;20190;-62
2023/08/18 02:01:07;;;;;;;0.80;0.80;;;;;;;19.84;85.76;95510.56;4343760;32;20246;-62
2023/08/18 02:03:32;;;;;;;0.77;0.77;;;;;;;19.89;85.50;95510.28;4358936;32;20184;-63
2023/08/18 02:05:59;;;;;;;0.53;0.53;;;;;;;19.83;85.50;95511.69;4349890;32;20199;-62
2023/08/18 02:08:24;;;;;;;0.90;0.90;;;;;;;19.81;85.68;95499.69;4348924;32;20228;-61
2023/08/18 02:10:49;;;;;;;1.03;1.00;;;;;;;19.84;85.47;95497.09;4356683;32;20189;-62
2023/08/18 02:13:15;;;;;;;0.73;0.73;;;;;;;19.86;85.37;95494.03;4346899;32;20193;-62
2023/08/18 02:15:40;;;;;;;1.00;1.00;;;;;;;19.75;85.46;95490.28;4346721;32;20181;-62
2023/08/18 02:18:06;;;;;;;1.10;1.10;;;;;;;19.84;85.29;95490.91;4344821;32;20184;-61
2023/08/18 02:20:32;;;;;;;0.60;0.60;;;;;;;19.69;85.86;95487.09;4346486;32;20197;-62
2023/08/18 02:22:57;;;;;;;1.00;1.00;;;;;;;19.76;85.50;95476.50;4364107;32;20189;-61
2023/08/18 02:25:23;;;;;;;0.90;0.90;;;;;;;19.80;85.45;95482.75;4360161;32;20177;-61
2023/08/18 02:27:48;;;;;;;1.20;1.20;;;;;;;19.78;85.35;95484.22;4363170;32;20177;-62
2023/08/18 02:30:14;;;;;;;3.70;1.00;;;;;;;19.80;85.12;95487.34;4341129;32;20209;-61
2023/08/18 02:32:39;;;;;;;1.03;1.03;;;;;;;19.76;85.17;95484.56;4356308;32;20235;-61
2023/08/18 02:35:04;;;;;;;1.50;1.13;;;;;;;19.86;84.76;95489.44;4363610;32;20276;-61
2023/08/18 02:37:30;;;;;;;0.87;0.87;;;;;;;19.84;84.81;95494.38;4347111;32;20247;-61
2023/08/18 02:39:55;;;;;;;0.60;0.60;;;;;;;19.74;85.18;95489.53;4344915;32;20244;-62
2023/08/18 02:42:21;;;;;;;1.07;0.80;;;;;;;19.71;85.24;95495.63;4347918;32;20207;-61
2023/08/18 02:44:46;;;;;;;0.50;0.50;;;;;;;19.66;85.67;95490.47;4344836;32;20201;-61
2023/08/18 02:47:13;;;;;;;0.80;0.80;;;;;;;19.69;85.32;95489.78;4336849;32;20201;-62
2023/08/18 02:49:38;;;;;;;0.60;0.60;;;;;;;19.71;85.38;95494.84;4346087;32;20190;-62
2023/08/18 02:52:04;;;;;;;1.23;1.13;;;;;;;19.69;85.19;95497.09;4353688;32;20207;-61
2023/08/18 02:54:29;;;;;;;0.87;0.87;;;;;;;19.72;84.94;95507.16;4350097;32;20225;-61
2023/08/18 02:56:55;;;;;;;0.83;0.83;;;;;;;19.66;85.36;95509.31;4340267;32;20207;-61
2023/08/18 02:59:20;;;;;;;0.77;0.77;;;;;;;19.56;85.39;95504.44;4324459;32;20251;-62
2023/08/18 03:01:45;;;;;;;0.70;0.70;;;;;;;19.50;85.35;95506.63;4355764;32;20193;-61
2023/08/18 03:04:14;;;;;;;0.53;0.53;;;;;;;19.59;85.17;95503.75;4339367;32;20190;-61
2023/08/18 03:06:39;;;;;;;0.57;0.57;;;;;;;19.64;85.02;95502.72;4353640;32;20177;-62
2023/08/18 03:09:04;;;;;;;0.37;0.37;;;;;;;19.60;85.08;95509.91;4344138;32;20228;-61
2023/08/18 03:11:29;;;;;;;0.70;0.70;;;;;;;19.52;85.20;95509.75;4358604;32;20203;-61
2023/08/18 03:13:56;;;;;;;0.83;0.83;;;;;;;19.63;84.77;95520.78;4357360;32;20189;-61
2023/08/18 03:16:22;;;;;;;1.13;1.07;;;;;;;19.59;84.86;95517.22;4350118;32;20196;-62
2023/08/18 03:18:48;;;;;;;0.90;0.90;;;;;;;19.59;84.85;95519.91;4357235;32;20181;-61
2023/08/18 03:21:13;;;;;;;1.20;1.20;;;;;;;19.48;85.11;95508.84;4356262;32;20189;-61
2023/08/18 03:23:39;;;;;;;0.77;0.77;;;;;;;19.54;85.13;95517.47;4356963;32;20193;-61
2023/08/18 03:26:05;;;;;;;0.43;0.43;;;;;;;19.52;85.16;95509.75;4343625;32;20239;-62
2023/08/18 03:28:33;;;;;;;0.60;0.60;;;;;;;19.50;85.11;95522.78;4359786;32;20200;-62
2023/08/18 03:31:01;;;;;;;0.90;0.90;;;;;;;19.54;84.97;95518.25;4334254;32;20177;-61
2023/08/18 03:33:27;;;;;;;0.47;0.47;;;;;;;19.39;85.50;95523.56;4324562;32;20205;-61
2023/08/18 03:35:53;;;;;;;0.70;0.70;;;;;;;19.40;85.19;95522.44;4352078;32;20302;-62
2023/08/18 03:38:18;;;;;;;1.30;1.03;;;;;;;19.18;86.06;95516.50;4337028;32;20252;-62
2023/08/18 03:40:44;;;;;;;3.23;0.83;;;;;;;19.31;85.76;95525.31;4336371;32;20239;-61
2023/08/18 03:43:09;;;;;;;0.83;0.83;;;;;;;19.36;85.43;95527.72;4341555;32;20284;-62
2023/08/18 03:45:35;;;;;;;0.97;0.97;;;;;;;19.43;85.13;95529.84;4355592;32;20246;-62
2023/08/18 03:48:00;;;;;;;1.07;0.90;;;;;;;19.36;85.26;95521.56;4355192;32;20262;-62
2023/08/18 03:50:25;;;;;;;0.57;0.57;;;;;;;19.43;84.99;95521.78;4334018;32;20222;-61
2023/08/18 03:52:51;;;;;;;0.40;0.40;;;;;;;19.41;85.26;95534.78;4334126;32;20205;-61
2023/08/18 03:55:17;;;;;;;0.50;0.50;;;;;;;19.27;85.76;95529.81;4337260;32;20197;-61
2023/08/18 03:57:43;;;;;;;1.13;0.70;;;;;;;19.38;85.44;95530.09;4361526;32;20193;-62
2023/08/18 04:00:09;;;;;;;0.70;0.70;;;;;;;19.40;85.28;95527.84;4329735;32;20212;-62
2023/08/18 04:02:35;;;;;;;0.53;0.53;;;;;;;19.35;85.50;95520.00;4349403;32;20220;-62
2023/08/18 04:05:00;;;;;;;1.07;0.93;;;;;;;19.36;85.47;95530.41;4358019;32;20207;-62
2023/08/18 04:07:26;;;;;;;3.10;0.87;;;;;;;19.44;84.92;95534.87;4344575;32;20194;-62
2023/08/18 04:09:51;;;;;;;0.70;0.70;;;;;;;19.42;84.99;95544.41;4337306;32;20192;-61
2023/08/18 04:12:16;;;;;;;0.93;0.93;;;;;;;19.34;85.09;95546.12;4335113;32;20188;-61
2023/08/18 04:14:42;;;;;;;0.70;0.70;;;;;;;19.25;85.67;95553.59;4333213;32;20202;-62
2023/08/18 04:17:07;;;;;;;0.90;0.90;;;;;;;19.25;85.65;95556.28;4341667;32;20197;-62
2023/08/18 04:19:32;;;;;;;0.30;0.30;;;;;;;19.02;86.09;95556.00;4336294;32;20181;-62
2023/08/18 04:21:58;;;;;;;0.70;0.70;;;;;;;19.16;85.95;95550.25;4335182;32;20182;-61
2023/08/18 04:24:23;;;;;;;0.50;0.50;;;;;;;19.27;85.45;95555.94;4346361;32;20363;-61
2023/08/18 04:26:48;;;;;;;0.60;0.60;;;;;;;19.15;85.82;95554.06;4334193;32;20219;-62
2023/08/18 04:29:14;;;;;;;0.57;0.57;;;;;;;19.19;86.13;95558.41;4349761;32;20216;-61
2023/08/18 04:31:39;;;;;;;0.57;0.57;;;;;;;19.32;85.62;95555.69;4345303;32;20197;-61
2023/08/18 04:34:04;;;;;;;0.57;0.57;;;;;;;19.38;85.41;95554.31;4333999;32;20220;-61
2023/08/18 04:36:30;;;;;;;0.50;0.50;;;;;;;19.30;85.75;95553.34;4336193;32;20189;-62
2023/08/18 04:38:56;;;;;;;0.23;0.23;;;;;;;19.36;86.13;95553.84;4348077;32;20204;-61
2023/08/18 04:41:23;;;;;;;0.77;0.77;;;;;;;19.32;85.36;95556.47;4343995;32;20205;-62
2023/08/18 04:43:52;;;;;;;0.90;0.90;;;;;;;19.29;85.48;95549.09;4340051;32;20177;-61
2023/08/18 04:46:17;;;;;;;0.50;0.50;;;;;;;19.26;85.20;95551.69;4351360;32;20204;-61
2023/08/18 04:48:43;;;;;;;0.63;0.63;;;;;;;19.32;85.06;95559.16;4347370;32;20205;-61
2023/08/18 04:51:08;;;;;;;0.40;0.40;;;;;;;19.42;84.67;95561.34;4326929;32;20219;-62
2023/08/18 04:53:33;;;;;;;1.30;0.73;;;;;;;19.49;84.11;95560.75;4339592;32;20204;-62
2023/08/18 04:56:03;;;;;;;0.63;0.60;;;;;;;19.48;84.21;95567.28;4357557;32;20197;-61
2023/08/18 04:58:29;;;;;;;0.10;0.10;;;;;;;19.50;83.82;95562.38;4356467;32;20205;-62
2023/08/18 05:00:54;;;;;;;0.60;0.60;;;;;;;19.45;84.21;95565.25;4341297;32;20209;-61
2023/08/18 05:03:19;;;;;;;0.40;0.40;;;;;;;19.56;83.39;95571.72;4334661;32;20256;-61
2023/08/18 05:06:08;;;;;;;0.93;0.87;;;;;;;19.55;83.35;95572.84;4354066;32;20237;-61
2023/08/18 05:08:34;;;;;;;0.20;0.20;;;;;;;19.52;83.40;95568.97;4336391;32;20257;-62
2023/08/18 05:11:05;;;;;;;0.83;0.83;;;;;;;19.61;83.29;95570.72;4360225;32;20197;-61
2023/08/18 05:13:31;;;;;;;0.50;0.50;;;;;;;19.56;83.27;95579.81;4333365;32;20177;-62
2023/08/18 05:15:58;;;;;;;0.30;0.30;;;;;;;19.53;83.06;95575.13;4320537;32;20220;-61
2023/08/18 05:18:24;;;;;;;0.40;0.40;;;;;;;19.58;82.90;95582.94;4336217;32;20185;-61
2023/08/18 05:20:49;;;;;;;0.70;0.70;;;;;;;19.54;82.94;95579.38;4334059;32;20173;-61
2023/08/18 05:23:16;;;;;;;2.97;0.73;;;;;;;19.66;82.58;95587.41;4345024;32;20232;-61
2023/08/18 05:25:43;;;;;;;0.57;0.57;;;;;;;19.66;83.03;95584.72;4360005;32;20209;-62
2023/08/18 05:28:09;;;;;;;0.50;0.50;;;;;;;19.72;82.67;95583.34;4342224;32;20190;-62
2023/08/18 05:30:34;;;;;;;0.30;0.30;;;;;;;19.81;81.93;95585.84;4351099;32;20284;-61
2023/08/18 05:32:59;;;;;;;0.23;0.23;;;;;;;19.77;82.40;95580.37;4334971;32;20193;-62
2023/08/18 05:35:26;;;;;;;0.73;0.73;;;;;;;19.82;82.32;95588.19;4351778;32;20228;-61
2023/08/18 05:37:52;;;;;;;1.00;1.00;;;;;;;19.83;82.86;95589.75;4337487;32;20185;-61
2023/08/18 05:40:19;;;;;;;0.90;0.90;;;;;;;19.84;83.26;95577.09;4348999;32;20189;-62
2023/08/18 05:42:44;;;;;;;0.67;0.67;;;;;;;19.88;83.59;95581.44;4343438;32;20177;-62
2023/08/18 05:45:10;;;;;;;0.67;0.67;;;;;;;19.86;84.01;95574.84;4340609;32;20307;-62
2023/08/18 05:47:36;;;;;;;0.37;0.37;;;;;;;19.94;83.93;95573.13;4338065;32;20225;-61
2023/08/18 05:50:02;;;;;;;2.20;1.10;;;;;;;19.96;83.83;95577.00;4339095;32;20189;-62
2023/08/18 05:52:28;;;;;;;0.70;0.70;;;;;;;20.01;83.55;95581.34;4334770;32;20236;-62
2023/08/18 05:54:54;;;;;;;0.37;0.37;;;;;;;19.99;83.48;95589.78;4335312;32;20189;-61
2023/08/18 05:57:19;;;;;;;1.13;1.13;;;;;;;19.99;84.09;95587.09;4332790;32;20191;-62
2023/08/18 05:59:44;;;;;;;0.93;0.93;;;;;;;20.06;84.12;95586.50;4330298;32;20240;-61
2023/08/18 06:02:10;;;;;;;1.37;1.37;;;;;;;20.08;84.53;95589.63;4331717;32;20211;-61
2023/08/18 06:04:35;;;;;;;1.27;1.10;;;;;;;20.07;84.75;95583.44;4338653;32;20232;-62
2023/08/18 06:07:00;;;;;;;1.33;1.23;;;;;;;20.08;84.02;95586.94;4357227;32;20193;-62
2023/08/18 06:09:26;;;;;;;0.90;0.90;;;;;;;20.12;84.26;95593.97;4356175;32;20201;-61
2023/08/18 06:11:51;;;;;;;0.73;0.73;;;;;;;20.10;83.16;95577.38;4357626;32;20201;-61
2023/08/18 06:14:16;;;;;;;1.20;1.20;;;;;;;20.13;82.73;95587.47;4348838;32;20181;-62
2023/08/18 06:16:41;;;;;;;0.30;0.30;;;;;;;20.19;81.89;95593.34;4338320;32;20238;-62
2023/08/18 06:19:08;;;;;;;0.87;0.87;;;;;;;20.25;81.73;95586.56;4340134;32;20194;-61
2023/08/18 06:21:33;;;;;;;0.43;0.40;;;;;;;20.30;81.21;95585.53;4346433;32;20197;-63
2023/08/18 06:23:58;;;;;;;0.33;0.33;;;;;;;20.35;81.36;95596.84;4337697;32;20177;-61
2023/08/18 06:26:24;;;;;;;0.90;0.90;;;;;;;20.41;81.35;95602.75;4355005;32;20189;-62
2023/08/18 06:28:49;;;;;;;0.70;0.70;;;;;;;20.37;81.71;95599.22;4354382;32;20181;-62
2023/08/18 06:31:14;;;;;;;0.70;0.70;;;;;;;20.47;81.50;95591.38;4336225;32;20217;-62
2023/08/18 06:33:40;;;;;;;0.93;0.93;;;;;;;20.48;81.71;95598.34;4352128;32;20216;-61
2023/08/18 06:36:05;;;;;;;1.90;1.80;;;;;;;20.56;82.03;95592.00;4344223;32;20232;-62
2023/08/18 06:38:31;;;;;;;1.40;1.30;;;;;;;20.53;82.45;95598.06;4360307;32;20193;-62
2023/08/18 06:40:57;;;;;;;1.40;1.40;;;;;;;20.62;82.84;95591.69;4352125;32;20199;-61
2023/08/18 06:43:22;;;;;;;0.77;0.73;;;;;;;20.65;82.04;95599.09;4348703;32;20194;-62
2023/08/18 06:45:49;;;;;;;0.87;0.87;;;;;;;20.67;81.17;95588.75;4347042;32;20231;-61
2023/08/18 06:48:14;;;;;;;0.70;0.53;;;;;;;20.78;80.99;95597.88;4340871;32;20189;-62
2023/08/18 06:50:39;;;;;;;0.77;0.77;;;;;;;20.82;80.27;95609.50;4347030;32;20201;-61
2023/08/18 06:53:05;;;;;;;0.67;0.67;;;;;;;20.91;80.24;95604.69;4350050;32;20240;-62
2023/08/18 06:55:31;;;;;;;8.53;4.83;;;;;;;20.92;80.29;95604.34;4361360;32;20192;-62
2023/08/18 06:57:57;;;;;;;1.30;1.23;;;;;;;20.93;80.58;95603.22;4336464;32;20211;-62
2023/08/18 07:00:22;;;;;;;1.20;1.20;;;;;;;20.94;80.29;95601.31;4343138;32;20204;-61
2023/08/18 07:02:49;;;;;;;1.03;1.03;;;;;;;21.02;79.42;95608.41;4346500;32;20228;-62
2023/08/18 07:05:16;;;;;;;0.60;0.60;;;;;;;21.09;80.00;95610.47;4356683;32;20188;-62
2023/08/18 07:07:41;;;;;;;0.57;0.57;;;;;;;21.12;79.59;95610.56;4348106;32;20200;-61
2023/08/18 07:10:07;;;;;;;0.87;0.87;;;;;;;21.13;79.96;95612.13;4343237;32;20203;-62
2023/08/18 07:12:34;;;;;;;0.70;0.70;;;;;;;21.15;79.16;95615.25;4353231;32;20203;-61
2023/08/18 07:14:59;;;;;;;0.47;0.47;;;;;;;21.11;78.68;95610.91;4341901;32;20189;-61
2023/08/18 07:17:25;;;;;;;4.57;0.70;;;;;;;21.10;79.18;95606.62;4345258;32;20236;-62
2023/08/18 07:19:50;;;;;;;0.70;0.70;;;;;;;21.19;78.74;95612.63;4343429;32;20257;-62
2023/08/18 07:22:15;;;;;;;0.40;0.40;;;;;;;21.27;78.27;95615.12;4335600;32;20200;-61
2023/08/18 07:24:41;;;;;;;1.90;0.90;;;;;;;21.27;78.13;95617.84;4319749;32;20181;-62
2023/08/18 07:27:07;;;;;;;0.50;0.50;;;;;;;21.34;78.24;95608.31;4344694;32;20282;-62
2023/08/18 07:29:33;;;;;;;0.40;0.40;;;;;;;21.30;78.18;95610.16;4358126;32;20196;-61
2023/08/18 07:31:59;;;;;;;0.60;0.60;;;;;;;21.24;77.83;95607.75;4343946;32;20208;-61
2023/08/18 07:34:25;;;;;;;3.70;1.03;;;;;;;21.33;76.33;95618.34;4337812;32;20265;-61
2023/08/18 07:36:51;;;;;;;0.30;0.30;;;;;;;21.36;76.51;95614.94;4353333;32;20247;-61
2023/08/18 07:39:16;;;;;;;0.40;0.40;;;;;;;21.45;76.45;95614.72;4345505;32;20177;-64
2023/08/18 07:41:41;;;;;;;0.20;0.20;;;;;;;21.46;77.56;95618.97;4337098;32;20174;-62
2023/08/18 07:44:07;;;;;;;0.67;0.67;;;;;;;21.48;77.22;95616.69;4332794;32;20213;-62
2023/08/18 07:46:33;;;;;;;0.57;0.57;;;;;;;21.46;76.97;95621.66;4353511;32;20222;-61
2023/08/18 07:49:00;;;;;;;0.60;0.60;;;;;;;21.47;78.44;95625.94;4350958;32;20192;-61
2023/08/18 07:51:27;;;;;;;0.43;0.43;;;;;;;21.55;75.77;95624.94;4333454;32;20216;-62
2023/08/18 07:53:53;;;;;;;0.53;0.53;;;;;;;21.61;76.50;95626.25;4355849;32;20181;-62
2023/08/18 07:56:18;;;;;;;0.30;0.30;;;;;;;21.64;77.23;95622.81;4340545;32;20251;-61
2023/08/18 07:58:44;;;;;;;0.40;0.40;;;;;;;21.66;76.79;95635.94;4348879;32;20192;-61
2023/08/18 08:01:09;;;;;;;1.97;1.17;;;;;;;21.68;76.81;95630.97;4336165;32;20181;-61
2023/08/18 08:03:35;;;;;;;0.30;0.30;;;;;;;21.70;75.76;95628.69;4341971;32;20199;-63
2023/08/18 08:06:04;;;;;;;0.60;0.60;;;;;;;21.84;74.05;95634.37;4358929;32;20204;-62
2023/08/18 08:08:29;;;;;;;0.23;0.23;;;;;;;21.88;75.47;95629.81;4334117;32;20237;-61
2023/08/18 08:10:55;;;;;;;0.40;0.40;;;;;;;21.93;75.06;95632.22;4336137;32;20189;-61
2023/08/18 08:13:20;;;;;;;0.63;0.63;;;;;;;21.99;74.54;95632.72;4335241;32;20240;-61
2023/08/18 08:15:45;;;;;;;0.50;0.50;;;;;;;22.04;74.08;95632.44;4349446;32;20224;-61
2023/08/18 08:18:15;;;;;;;0.93;0.70;;;;;;;22.03;74.41;95631.66;4329957;32;20220;-62
2023/08/18 08:20:42;;;;;;;0.80;0.80;;;;;;;22.10;75.28;95631.03;4345945;32;20232;-61
2023/08/18 08:23:08;;;;;;;0.77;0.73;;;;;;;22.13;74.89;95627.59;4356315;32;20197;-62
2023/08/18 08:25:34;;;;;;;0.60;0.60;;;;;;;22.09;75.13;95629.44;4338743;32;20283;-61
2023/08/18 08:28:04;;;;;;;0.40;0.40;;;;;;;22.18;74.28;95628.09;4350985;32;20189;-62
2023/08/18 08:30:29;;;;;;;0.30;0.30;;;;;;;22.23;74.64;95629.72;4327569;32;20190;-61
2023/08/18 08:32:55;;;;;;;0.30;0.30;;;;;;;22.30;74.36;95624.41;4347476;32;20235;-62
2023/08/18 08:35:21;;;;;;;0.83;0.57;;;;;;;22.25;75.29;95630.91;4348417;32;20208;-61
2023/08/18 08:37:47;;;;;;;0.50;0.50;;;;;;;22.33;74.97;95628.31;4349071;32;20239;-62
2023/08/18 08:40:18;;;;;;;1.60;0.70;;;;;;;22.37;74.96;95626.47;4343648;32;20206;-62
2023/08/18 08:42:45;;;;;;;2.83;1.20;;;;;;;22.38;74.93;95625.31;4358145;32;20296;-62
2023/08/18 08:45:11;;;;;;;2.17;2.03;;;;;;;22.40;74.51;95629.25;4338655;32;20204;-62
2023/08/18 08:47:40;;;;;;;1.10;1.10;;;;;;;22.55;73.89;95632.94;4328894;32;20262;-61
2023/08/18 08:50:06;;;;;;;0.87;0.77;;;;;;;22.58;73.60;95634.94;4326474;32;20256;-61
2023/08/18 08:52:37;;;;;;;0.83;0.83;;;;;;;22.51;75.07;95632.88;4344038;32;20190;-62
2023/08/18 08:55:06;;;;;;;1.37;1.13;;;;;;;22.51;75.48;95629.41;4333354;32;20185;-61
2023/08/18 08:57:31;;;;;;;0.70;0.70;;;;;;;22.62;74.87;95630.38;4339512;32;20242;-61
2023/08/18 08:59:57;;;;;;;0.40;0.40;;;;;;;22.61;74.61;95637.69;4341421;32;20213;-62
2023/08/18 09:02:22;;;;;;;0.60;0.60;;;;;;;22.76;73.36;95618.97;4355452;32;20201;-62
2023/08/18 09:04:47;;;;;;;0.90;0.90;;;;;;;22.77;74.04;95621.34;4351139;32;20233;-61
2023/08/18 09:07:14;;;;;;;0.60;0.60;;;;;;;22.73;74.32;95617.78;4331874;32;20211;-62
2023/08/18 09:09:40;;;;;;;0.50;0.50;;;;;;;22.78;73.80;95622.91;4338872;32;20194;-62
2023/08/18 09:12:10;;;;;;;1.13;0.83;;;;;;;23.02;71.94;95621.72;4340814;32;20228;-62
2023/08/18 09:14:38;;;;;;;0.73;0.47;;;;;;;23.01;72.87;95619.37;4338395;32;20257;-61
2023/08/18 09:17:04;;;;;;;0.87;0.73;;;;;;;23.08;72.30;95625.63;4337522;32;20231;-64
2023/08/18 09:19:31;;;;;;;0.73;0.73;;;;;;;23.22;71.56;95623.16;4354470;32;20253;-62
2023/08/18 09:22:00;;;;;;;0.73;0.73;;;;;;;23.21;72.14;95621.59;4333327;32;20178;-62
2023/08/18 09:24:26;;;;;;;0.73;0.73;;;;;;;23.24;71.99;95620.84;4336145;32;20186;-61
2023/08/18 09:26:52;;;;;;;0.40;0.40;;;;;;;23.25;72.21;95614.28;4339597;32;20295;-62
2023/08/18 09:29:18;;;;;;;0.40;0.40;;;;;;;23.27;73.26;95616.63;4347503;32;20197;-62
2023/08/18 09:31:45;;;;;;;0.50;0.50;;;;;;;23.28;72.13;95608.13;4329904;32;20335;-61
2023/08/18 09:34:19;;;;;;;2.37;0.83;;;;;;;23.35;70.12;95612.06;4322112;32;20299;-62
2023/08/18 09:36:51;;;;;;;0.33;0.33;;;;;;;23.45;69.49;95617.63;4323221;32;20208;-62
2023/08/18 09:39:16;;;;;;;0.63;0.63;;;;;;;23.56;68.98;95612.38;4323309;32;20236;-62
2023/08/18 09:41:46;;;;;;;0.77;0.77;;;;;;;23.54;69.27;95609.25;4331938;32;20181;-61
2023/08/18 09:44:12;;;;;;;0.77;0.63;;;;;;;23.67;68.37;95615.22;4326062;32;20209;-62
2023/08/18 09:46:38;;;;;;;0.57;0.57;;;;;;;23.76;67.14;95611.03;4334691;32;20182;-62
2023/08/18 09:49:07;;;;;;;0.47;0.47;;;;;;;23.74;67.57;95607.94;4336882;32;20225;-62
2023/08/18 09:51:33;;;;;;;3.20;1.17;;;;;;;23.75;67.35;95620.31;4336676;32;20192;-61
2023/08/18 09:54:01;;;;;;;0.40;0.40;;;;;;;23.74;67.27;95607.16;4328847;32;20178;-62
2023/08/18 09:56:33;;;;;;;0.33;0.33;;;;;;;23.85;66.09;95610.75;4337052;32;20215;-61
2023/08/18 09:59:29;;;;;;;0.50;0.50;;;;;;;24.03;62.97;95606.31;4333003;32;20174;-61
2023/08/18 10:01:54;;;;;;;0.40;0.40;;;;;;;24.08;62.24;95603.25;4332224;32;20257;-61
2023/08/18 10:04:24;;;;;;;0.13;0.13;;;;;;;24.10;61.54;95595.53;4337610;32;20311;-61
2023/08/18 10:06:55;;;;;;;0.33;0.33;;;;;;;24.14;61.77;95596.31;4336915;32;20204;-62
2023/08/18 10:09:27;;;;;;;1.40;0.50;;;;;;;24.14;62.57;95599.03;4332760;32;20186;-61
2023/08/18 10:11:53;;;;;;;0.27;0.27;;;;;;;24.17;62.59;95600.22;4327624;32;20190;-62
2023/08/18 10:14:21;;;;;;;0.20;0.20;;;;;;;24.19;62.66;95603.34;4336207;32;20189;-61
2023/08/18 10:16:48;;;;;;;0.27;0.27;;;;;;;24.40;58.51;95600.06;4328192;32;20250;-61
2023/08/18 10:19:14;;;;;;;0.30;0.30;;;;;;;24.46;58.97;95602.06;4330620;32;20181;-61
2023/08/18 10:21:39;;;;;;;0.40;0.40;;;;;;;24.48;59.87;95605.19;4327232;32;20228;-62
2023/08/18 10:24:05;;;;;;;0.60;0.60;;;;;;;24.55;59.68;95612.59;4329058;32;20190;-62
2023/08/18 10:26:34;;;;;;;0.50;0.50;;;;;;;24.53;60.41;95609.47;4343377;32;20203;-62
2023/08/18 10:29:18;;;;;;;0.20;0.20;;;;;;;24.64;58.18;95604.91;4333611;32;20198;-62
2023/08/18 10:31:49;;;;;;;0.30;0.30;;;;;;;24.68;57.48;95608.44;4334010;32;20216;-62
2023/08/18 10:34:22;;;;;;;0.30;0.30;;;;;;;24.87;57.69;95607.41;4338836;32;20212;-62
2023/08/18 10:36:47;;;;;;;1.33;0.50;;;;;;;24.85;57.21;95596.13;4342837;32;20207;-62
2023/08/18 10:39:26;;;;;;;0.80;0.80;;;;;;;24.82;57.54;95602.31;4321316;32;20205;-62
2023/08/18 10:42:05;;;;;;;0.60;0.60;;;;;;;24.85;57.63;95598.84;4340383;32;20181;-62
2023/08/18 10:44:30;;;;;;;0.60;0.60;;;;;;;24.82;59.28;95597.66;4333452;32;20221;-62
2023/08/18 10:46:57;;;;;;;1.13;1.03;;;;;;;24.81;60.53;95600.75;4325466;32;20189;-62
2023/08/18 10:49:23;;;;;;;1.10;1.07;;;;;;;24.80;59.75;95591.84;4329917;32;20258;-62
2023/08/18 10:51:53;;;;;;;0.93;0.93;;;;;;;24.86;59.37;95584.91;4331445;32;20250;-62
2023/08/18 10:54:18;;;;;;;1.13;1.03;;;;;;;24.81;59.85;95589.91;4333748;32;20257;-62
2023/08/18 10:56:44;;;;;;;0.60;0.60;;;;;;;24.86;58.94;95584.12;4330519;32;20232;-62
2023/08/18 10:59:09;;;;;;;0.17;0.17;;;;;;;24.90;54.48;95587.66;4332951;32;20196;-61
2023/08/18 11:01:35;;;;;;;0.77;0.53;;;;;;;25.06;55.07;95581.94;4333672;32;20198;-62
2023/08/18 11:04:03;;;;;;;0.10;0.10;;;;;;;25.12;55.67;95581.22;4338979;32;20220;-61
2023/08/18 11:06:29;;;;;;;0.30;0.30;;;;;;;25.14;55.50;95578.91;4342328;32;20256;-62
2023/08/18 11:08:55;;;;;;;0.70;0.70;;;;;;;25.17;55.35;95571.91;4333656;32;20281;-62
2023/08/18 11:11:20;;;;;;;0.53;0.53;;;;;;;25.10;55.56;95572.66;4332308;32;20193;-62
2023/08/18 11:13:46;;;;;;;0.63;0.40;;;;;;;25.08;56.58;95564.13;4331527;32;20226;-62
2023/08/18 11:16:12;;;;;;;0.30;0.30;;;;;;;25.25;55.99;95560.69;4331537;32;20268;-61
2023/08/18 11:18:41;;;;;;;0.23;0.23;;;;;;;25.47;56.10;95564.28;4341649;32;20219;-61
2023/08/18 11:21:06;;;;;;;0.60;0.60;;;;;;;25.58;56.41;95559.63;4334574;32;20214;-62
2023/08/18 11:23:32;;;;;;;0.70;0.50;;;;;;;25.62;56.32;95555.03;4330140;32;20224;-62
2023/08/18 11:25:58;;;;;;;0.27;0.27;;;;;;;25.56;57.60;95550.34;4330845;32;20189;-62
2023/08/18 11:28:24;;;;;;;0.40;0.40;;;;;;;25.59;57.01;95549.53;4325445;32;20244;-62
2023/08/18 11:30:53;;;;;;;0.50;0.50;;;;;;;25.73;55.14;95552.34;4332193;32;20193;-62